Rentchler, Illinois
Current Conditions -  °F | °C
As of 12:58 PM on Thursday 30 Oct 2014 (Local Time) from KBLV Reporting Station
Scattered Clouds Scattered Clouds  
Wind Chill: 56°   Ceiling: Unl
Heat Index: 56°   Visibility: 10mi
Dew Point: 42°   Wind: 10mph
Humidity: 61%   Direction: 170°S
Pressure: 30.08"   Gusts: NA
Location:  38.5093°N, 89.8955°W
Report Text: KBLV 301758Z AUTO 17009KT 10SM SCT100 13/06 A3008 RMK AO2 SLP191 60000 T01330058 10133 20012 58021
Loading
Personal Weather Stations






























Interactive Weather Map New forecast layout! Learn more

10-Day Weather Forecast

Advertisements
Track Severe Weather on mobile